sensor_id;sensor_type;location;lat;lon;timestamp;pressure;altitude;pressure_sealevel;temperature;humidity
55916;BME280;41826;53.246;-6.670;2023-04-15T00:00:17;100548.31;;;5.82;100.00
55916;BME280;41826;53.246;-6.670;2023-04-15T00:02:42;100493.28;;;5.86;100.00
55916;BME280;41826;53.246;-6.670;2023-04-15T00:05:08;100504.81;;;5.95;100.00
55916;BME280;41826;53.246;-6.670;2023-04-15T00:07:34;100467.81;;;5.68;100.00
55916;BME280;41826;53.246;-6.670;2023-04-15T00:10:00;100433.25;;;5.65;100.00
55916;BME280;41826;53.246;-6.670;2023-04-15T00:12:26;100431.69;;;5.74;100.00
55916;BME280;41826;53.246;-6.670;2023-04-15T00:14:52;100406.03;;;5.58;100.00
55916;BME280;41826;53.246;-6.670;2023-04-15T00:17:18;100398.91;;;5.83;100.00
55916;BME280;41826;53.246;-6.670;2023-04-15T00:19:47;100419.75;;;5.94;100.00
55916;BME280;41826;53.246;-6.670;2023-04-15T00:22:12;100475.50;;;6.37;100.00
55916;BME280;41826;53.246;-6.670;2023-04-15T00:24:38;100546.44;;;6.63;100.00
55916;BME280;41826;53.246;-6.670;2023-04-15T00:27:03;100601.47;;;6.71;100.00
55916;BME280;41826;53.246;-6.670;2023-04-15T00:29:30;100616.66;;;6.43;100.00
55916;BME280;41826;53.246;-6.670;2023-04-15T00:31:55;100587.00;;;6.22;100.00
55916;BME280;41826;53.246;-6.670;2023-04-15T00:34:21;100546.88;;;5.67;100.00
55916;BME280;41826;53.246;-6.670;2023-04-15T00:36:47;100488.38;;;5.59;100.00
55916;BME280;41826;53.246;-6.670;2023-04-15T00:39:13;100445.41;;;5.31;100.00
55916;BME280;41826;53.246;-6.670;2023-04-15T00:41:38;100401.50;;;5.49;100.00
55916;BME280;41826;53.246;-6.670;2023-04-15T00:44:05;100389.69;;;5.45;100.00
55916;BME280;41826;53.246;-6.670;2023-04-15T00:46:32;100345.81;;;5.29;100.00
55916;BME280;41826;53.246;-6.670;2023-04-15T00:48:59;100346.97;;;5.48;100.00
55916;BME280;41826;53.246;-6.670;2023-04-15T00:51:25;100329.34;;;5.40;100.00
55916;BME280;41826;53.246;-6.670;2023-04-15T00:53:50;100301.44;;;5.42;100.00
55916;BME280;41826;53.246;-6.670;2023-04-15T00:56:16;100294.91;;;5.48;100.00
55916;BME280;41826;53.246;-6.670;2023-04-15T00:58:42;100316.06;;;5.54;100.00
55916;BME280;41826;53.246;-6.670;2023-04-15T01:01:07;100284.88;;;5.20;100.00
55916;BME280;41826;53.246;-6.670;2023-04-15T01:03:33;100284.38;;;5.38;100.00
55916;BME280;41826;53.246;-6.670;2023-04-15T01:05:59;100284.28;;;5.39;100.00
55916;BME280;41826;53.246;-6.670;2023-04-15T01:08:28;100294.31;;;5.44;100.00
55916;BME280;41826;53.246;-6.670;2023-04-15T01:10:55;100323.53;;;5.48;100.00
55916;BME280;41826;53.246;-6.670;2023-04-15T01:13:22;100355.72;;;5.47;100.00
55916;BME280;41826;53.246;-6.670;2023-04-15T01:15:52;100335.63;;;5.37;100.00
55916;BME280;41826;53.246;-6.670;2023-04-15T01:18:18;100353.13;;;5.35;100.00
55916;BME280;41826;53.246;-6.670;2023-04-15T01:20:44;100359.88;;;5.27;100.00
55916;BME280;41826;53.246;-6.670;2023-04-15T01:23:10;100344.59;;;5.33;100.00
55916;BME280;41826;53.246;-6.670;2023-04-15T01:25:35;100293.63;;;4.97;100.00
55916;BME280;41826;53.246;-6.670;2023-04-15T01:28:01;100146.94;;;4.77;100.00
55916;BME280;41826;53.246;-6.670;2023-04-15T01:30:27;100075.44;;;4.71;100.00
55916;BME280;41826;53.246;-6.670;2023-04-15T01:32:53;100053.22;;;4.78;100.00
55916;BME280;41826;53.246;-6.670;2023-04-15T01:35:21;100047.66;;;4.61;100.00
55916;BME280;41826;53.246;-6.670;2023-04-15T01:37:48;100043.78;;;4.55;100.00
55916;BME280;41826;53.246;-6.670;2023-04-15T01:40:13;100060.47;;;4.41;100.00
55916;BME280;41826;53.246;-6.670;2023-04-15T01:42:39;100067.44;;;4.41;100.00
55916;BME280;41826;53.246;-6.670;2023-04-15T01:45:05;100155.06;;;4.50;100.00
55916;BME280;41826;53.246;-6.670;2023-04-15T01:47:31;100184.97;;;4.44;100.00
55916;BME280;41826;53.246;-6.670;2023-04-15T01:49:56;100187.72;;;4.76;100.00
55916;BME280;41826;53.246;-6.670;2023-04-15T01:52:22;100165.50;;;4.84;100.00
55916;BME280;41826;53.246;-6.670;2023-04-15T01:54:47;100167.63;;;4.78;100.00
55916;BME280;41826;53.246;-6.670;2023-04-15T01:57:13;100162.97;;;4.71;100.00
55916;BME280;41826;53.246;-6.670;2023-04-15T01:59:38;100171.75;;;4.81;100.00
55916;BME280;41826;53.246;-6.670;2023-04-15T02:02:03;100149.34;;;5.12;100.00
55916;BME280;41826;53.246;-6.670;2023-04-15T02:04:29;100132.31;;;5.08;100.00
55916;BME280;41826;53.246;-6.670;2023-04-15T02:06:55;100135.13;;;5.28;100.00
55916;BME280;41826;53.246;-6.670;2023-04-15T02:09:21;100136.13;;;5.36;100.00
55916;BME280;41826;53.246;-6.670;2023-04-15T02:11:46;100134.28;;;5.27;100.00
55916;BME280;41826;53.246;-6.670;2023-04-15T02:14:11;100143.72;;;5.39;100.00
55916;BME280;41826;53.246;-6.670;2023-04-15T02:16:37;100226.63;;;5.44;100.00
55916;BME280;41826;53.246;-6.670;2023-04-15T02:19:03;100222.16;;;5.35;100.00
55916;BME280;41826;53.246;-6.670;2023-04-15T02:21:29;100210.34;;;5.31;100.00
55916;BME280;41826;53.246;-6.670;2023-04-15T02:23:55;100289.47;;;5.28;100.00
55916;BME280;41826;53.246;-6.670;2023-04-15T02:26:20;100356.44;;;5.26;100.00
55916;BME280;41826;53.246;-6.670;2023-04-15T02:28:47;100442.19;;;5.28;100.00
55916;BME280;41826;53.246;-6.670;2023-04-15T02:31:13;100516.22;;;5.24;100.00
55916;BME280;41826;53.246;-6.670;2023-04-15T02:33:39;100539.47;;;5.38;100.00
55916;BME280;41826;53.246;-6.670;2023-04-15T02:36:04;100555.56;;;5.32;100.00
55916;BME280;41826;53.246;-6.670;2023-04-15T02:38:30;100585.88;;;5.44;100.00
55916;BME280;41826;53.246;-6.670;2023-04-15T02:40:56;100627.81;;;5.52;100.00
55916;BME280;41826;53.246;-6.670;2023-04-15T02:43:22;100656.28;;;5.42;100.00
55916;BME280;41826;53.246;-6.670;2023-04-15T02:45:48;100624.00;;;5.21;100.00
55916;BME280;41826;53.246;-6.670;2023-04-15T02:48:14;100573.50;;;5.24;100.00
55916;BME280;41826;53.246;-6.670;2023-04-15T02:50:42;100615.97;;;5.24;100.00
55916;BME280;41826;53.246;-6.670;2023-04-15T02:53:07;100620.13;;;5.27;100.00
55916;BME280;41826;53.246;-6.670;2023-04-15T02:55:32;100558.66;;;5.13;100.00
55916;BME280;41826;53.246;-6.670;2023-04-15T02:57:58;100603.84;;;5.36;100.00
55916;BME280;41826;53.246;-6.670;2023-04-15T03:00:25;100664.19;;;5.41;100.00
55916;BME280;41826;53.246;-6.670;2023-04-15T03:02:50;100588.94;;;5.14;100.00
55916;BME280;41826;53.246;-6.670;2023-04-15T03:05:21;100530.59;;;5.05;100.00
55916;BME280;41826;53.246;-6.670;2023-04-15T03:07:52;100563.28;;;5.09;100.00
55916;BME280;41826;53.246;-6.670;2023-04-15T03:10:17;100538.41;;;5.05;100.00
55916;BME280;41826;53.246;-6.670;2023-04-15T03:12:43;100574.75;;;5.07;100.00
55916;BME280;41826;53.246;-6.670;2023-04-15T03:15:09;100506.28;;;4.82;100.00
55916;BME280;41826;53.246;-6.670;2023-04-15T03:17:34;100319.72;;;4.73;100.00
55916;BME280;41826;53.246;-6.670;2023-04-15T03:20:04;100222.88;;;4.58;100.00
55916;BME280;41826;53.246;-6.670;2023-04-15T03:22:33;100204.00;;;4.56;100.00
55916;BME280;41826;53.246;-6.670;2023-04-15T03:24:58;100188.38;;;4.45;100.00
55916;BME280;41826;53.246;-6.670;2023-04-15T03:27:24;100188.16;;;4.37;100.00
55916;BME280;41826;53.246;-6.670;2023-04-15T03:29:50;100176.13;;;4.36;100.00
55916;BME280;41826;53.246;-6.670;2023-04-15T03:32:16;100184.44;;;4.05;100.00
55916;BME280;41826;53.246;-6.670;2023-04-15T03:34:42;100246.88;;;3.80;100.00
55916;BME280;41826;53.246;-6.670;2023-04-15T03:37:07;100286.97;;;4.00;100.00
55916;BME280;41826;53.246;-6.670;2023-04-15T03:39:33;100284.56;;;4.09;100.00
55916;BME280;41826;53.246;-6.670;2023-04-15T03:41:58;100303.84;;;3.94;100.00
55916;BME280;41826;53.246;-6.670;2023-04-15T03:44:27;100288.03;;;4.21;100.00
55916;BME280;41826;53.246;-6.670;2023-04-15T03:46:53;100281.88;;;4.22;100.00
55916;BME280;41826;53.246;-6.670;2023-04-15T03:49:18;100294.38;;;4.17;100.00
55916;BME280;41826;53.246;-6.670;2023-04-15T03:51:47;100292.28;;;4.22;100.00
55916;BME280;41826;53.246;-6.670;2023-04-15T03:54:13;100320.75;;;4.00;100.00
55916;BME280;41826;53.246;-6.670;2023-04-15T03:56:39;100342.69;;;3.96;100.00
55916;BME280;41826;53.246;-6.670;2023-04-15T03:59:04;100342.88;;;4.05;100.00
55916;BME280;41826;53.246;-6.670;2023-04-15T04:01:30;100307.53;;;4.27;100.00
55916;BME280;41826;53.246;-6.670;2023-04-15T04:03:55;100306.38;;;4.07;100.00
55916;BME280;41826;53.246;-6.670;2023-04-15T04:06:21;100312.72;;;3.79;100.00
55916;BME280;41826;53.246;-6.670;2023-04-15T04:08:46;100300.13;;;4.33;100.00
55916;BME280;41826;53.246;-6.670;2023-04-15T04:11:12;100271.25;;;4.25;100.00
55916;BME280;41826;53.246;-6.670;2023-04-15T04:13:37;100263.47;;;4.25;100.00
55916;BME280;41826;53.246;-6.670;2023-04-15T04:16:03;100272.94;;;4.26;100.00
55916;BME280;41826;53.246;-6.670;2023-04-15T04:18:30;100275.28;;;4.18;100.00
55916;BME280;41826;53.246;-6.670;2023-04-15T04:20:55;100287.78;;;4.13;100.00
55916;BME280;41826;53.246;-6.670;2023-04-15T04:23:21;100272.66;;;4.18;100.00
55916;BME280;41826;53.246;-6.670;2023-04-15T04:25:46;100265.81;;;4.17;100.00
55916;BME280;41826;53.246;-6.670;2023-04-15T04:28:12;100271.25;;;4.25;100.00
55916;BME280;41826;53.246;-6.670;2023-04-15T04:30:39;100283.25;;;4.15;100.00
55916;BME280;41826;53.246;-6.670;2023-04-15T04:33:05;100273.41;;;3.96;100.00
55916;BME280;41826;53.246;-6.670;2023-04-15T04:35:30;100287.34;;;3.95;100.00
55916;BME280;41826;53.246;-6.670;2023-04-15T04:37:59;100278.50;;;3.98;100.00
55916;BME280;41826;53.246;-6.670;2023-04-15T04:40:25;100300.19;;;3.73;100.00
55916;BME280;41826;53.246;-6.670;2023-04-15T04:42:50;100327.28;;;3.44;100.00
55916;BME280;41826;53.246;-6.670;2023-04-15T04:45:16;100343.31;;;3.62;100.00
55916;BME280;41826;53.246;-6.670;2023-04-15T04:47:41;100345.09;;;3.49;100.00
55916;BME280;41826;53.246;-6.670;2023-04-15T04:50:07;100343.53;;;3.46;100.00
55916;BME280;41826;53.246;-6.670;2023-04-15T04:52:33;100359.78;;;3.24;100.00
55916;BME280;41826;53.246;-6.670;2023-04-15T04:54:58;100398.56;;;3.39;100.00
55916;BME280;41826;53.246;-6.670;2023-04-15T04:57:24;100393.06;;;3.31;100.00
55916;BME280;41826;53.246;-6.670;2023-04-15T04:59:52;100447.16;;;3.37;100.00
55916;BME280;41826;53.246;-6.670;2023-04-15T05:02:18;100450.06;;;3.32;100.00
55916;BME280;41826;53.246;-6.670;2023-04-15T05:04:53;100453.03;;;3.39;100.00
55916;BME280;41826;53.246;-6.670;2023-04-15T05:07:22;100456.38;;;3.28;100.00
55916;BME280;41826;53.246;-6.670;2023-04-15T05:09:47;100467.50;;;2.90;100.00
55916;BME280;41826;53.246;-6.670;2023-04-15T05:12:13;100597.44;;;3.13;100.00
55916;BME280;41826;53.246;-6.670;2023-04-15T05:14:42;100594.97;;;3.24;100.00
55916;BME280;41826;53.246;-6.670;2023-04-15T05:17:07;100594.44;;;3.19;100.00
55916;BME280;41826;53.246;-6.670;2023-04-15T05:19:33;100598.81;;;3.18;100.00
55916;BME280;41826;53.246;-6.670;2023-04-15T05:21:59;100581.09;;;3.25;100.00
55916;BME280;41826;53.246;-6.670;2023-04-15T05:24:24;100545.19;;;3.32;100.00
55916;BME280;41826;53.246;-6.670;2023-04-15T05:26:50;100517.09;;;3.38;100.00
55916;BME280;41826;53.246;-6.670;2023-04-15T05:29:15;100476.00;;;3.45;100.00
55916;BME280;41826;53.246;-6.670;2023-04-15T05:31:41;100450.06;;;3.32;100.00
55916;BME280;41826;53.246;-6.670;2023-04-15T05:34:07;100483.75;;;3.19;100.00
55916;BME280;41826;53.246;-6.670;2023-04-15T05:36:32;100493.63;;;3.27;100.00
55916;BME280;41826;53.246;-6.670;2023-04-15T05:38:58;100461.25;;;3.33;100.00
55916;BME280;41826;53.246;-6.670;2023-04-15T05:41:23;100431.88;;;3.32;100.00
55916;BME280;41826;53.246;-6.670;2023-04-15T05:43:48;100505.91;;;2.71;100.00
55916;BME280;41826;53.246;-6.670;2023-04-15T05:46:14;100560.69;;;2.79;100.00
55916;BME280;41826;53.246;-6.670;2023-04-15T05:48:39;100590.72;;;2.69;100.00
55916;BME280;41826;53.246;-6.670;2023-04-15T05:51:05;100596.06;;;2.80;100.00
55916;BME280;41826;53.246;-6.670;2023-04-15T05:53:31;100622.72;;;2.68;100.00
55916;BME280;41826;53.246;-6.670;2023-04-15T05:55:56;100650.69;;;2.63;100.00
55916;BME280;41826;53.246;-6.670;2023-04-15T05:58:22;100663.84;;;2.59;100.00
55916;BME280;41826;53.246;-6.670;2023-04-15T06:00:47;100694.47;;;2.53;100.00
55916;BME280;41826;53.246;-6.670;2023-04-15T06:03:13;100754.72;;;2.56;100.00
55916;BME280;41826;53.246;-6.670;2023-04-15T06:05:38;100782.91;;;2.91;100.00
55916;BME280;41826;53.246;-6.670;2023-04-15T06:08:05;100798.91;;;2.98;100.00
55916;BME280;41826;53.246;-6.670;2023-04-15T06:10:30;100807.50;;;2.98;100.00
55916;BME280;41826;53.246;-6.670;2023-04-15T06:13:01;100822.09;;;3.30;100.00
55916;BME280;41826;53.246;-6.670;2023-04-15T06:15:26;100838.16;;;3.63;100.00
55916;BME280;41826;53.246;-6.670;2023-04-15T06:17:52;100835.06;;;3.85;100.00
55916;BME280;41826;53.246;-6.670;2023-04-15T06:20:17;100835.69;;;4.16;100.00
55916;BME280;41826;53.246;-6.670;2023-04-15T06:22:43;100820.91;;;4.44;100.00
55916;BME280;41826;53.246;-6.670;2023-04-15T06:25:08;100817.66;;;4.40;100.00
55916;BME280;41826;53.246;-6.670;2023-04-15T06:27:34;100815.41;;;4.48;100.00
55916;BME280;41826;53.246;-6.670;2023-04-15T06:29:59;100815.31;;;5.14;100.00
55916;BME280;41826;53.246;-6.670;2023-04-15T06:32:25;100800.44;;;5.65;100.00
55916;BME280;41826;53.246;-6.670;2023-04-15T06:34:50;100772.34;;;5.82;100.00
55916;BME280;41826;53.246;-6.670;2023-04-15T06:37:16;100747.09;;;5.71;100.00
55916;BME280;41826;53.246;-6.670;2023-04-15T06:39:41;100736.69;;;5.95;100.00
55916;BME280;41826;53.246;-6.670;2023-04-15T06:42:08;100720.94;;;5.73;100.00
55916;BME280;41826;53.246;-6.670;2023-04-15T06:44:34;100723.09;;;6.61;100.00
55916;BME280;41826;53.246;-6.670;2023-04-15T06:46:59;100667.34;;;6.73;100.00
55916;BME280;41826;53.246;-6.670;2023-04-15T06:49:25;100635.19;;;7.38;100.00
55916;BME280;41826;53.246;-6.670;2023-04-15T06:51:50;100543.16;;;7.25;100.00
55916;BME280;41826;53.246;-6.670;2023-04-15T06:54:17;100504.88;;;7.35;100.00
55916;BME280;41826;53.246;-6.670;2023-04-15T06:56:42;100466.47;;;7.47;100.00
55916;BME280;41826;53.246;-6.670;2023-04-15T06:59:07;100434.78;;;8.02;100.00
55916;BME280;41826;53.246;-6.670;2023-04-15T07:01:37;100468.19;;;7.89;100.00
55916;BME280;41826;53.246;-6.670;2023-04-15T07:04:02;100517.34;;;8.04;100.00
55916;BME280;41826;53.246;-6.670;2023-04-15T07:06:30;100621.34;;;8.01;100.00
55916;BME280;41826;53.246;-6.670;2023-04-15T07:08:57;100656.91;;;8.34;100.00
55916;BME280;41826;53.246;-6.670;2023-04-15T07:11:25;100719.31;;;8.39;100.00
55916;BME280;41826;53.246;-6.670;2023-04-15T07:13:50;100796.28;;;8.57;100.00
55916;BME280;41826;53.246;-6.670;2023-04-15T07:16:16;100860.88;;;8.78;100.00
55916;BME280;41826;53.246;-6.670;2023-04-15T07:18:41;100916.63;;;8.89;100.00
55916;BME280;41826;53.246;-6.670;2023-04-15T07:21:07;100952.81;;;8.84;100.00
55916;BME280;41826;53.246;-6.670;2023-04-15T07:23:33;100999.78;;;8.97;100.00
55916;BME280;41826;53.246;-6.670;2023-04-15T07:25:58;101014.34;;;9.74;100.00
55916;BME280;41826;53.246;-6.670;2023-04-15T07:28:24;101096.94;;;9.47;100.00
55916;BME280;41826;53.246;-6.670;2023-04-15T07:30:49;101099.25;;;9.83;100.00
55916;BME280;41826;53.246;-6.670;2023-04-15T07:33:15;101128.84;;;9.94;100.00
55916;BME280;41826;53.246;-6.670;2023-04-15T07:35:40;101165.16;;;10.62;100.00
55916;BME280;41826;53.246;-6.670;2023-04-15T07:38:05;101193.34;;;10.18;100.00
55916;BME280;41826;53.246;-6.670;2023-04-15T07:40:31;101196.63;;;10.31;100.00
55916;BME280;41826;53.246;-6.670;2023-04-15T07:42:57;101227.78;;;10.46;100.00
55916;BME280;41826;53.246;-6.670;2023-04-15T07:45:23;101306.78;;;10.84;100.00
55916;BME280;41826;53.246;-6.670;2023-04-15T07:47:51;101357.34;;;10.77;100.00
55916;BME280;41826;53.246;-6.670;2023-04-15T07:50:16;101379.28;;;10.55;100.00
55916;BME280;41826;53.246;-6.670;2023-04-15T07:52:43;101381.78;;;10.56;100.00
55916;BME280;41826;53.246;-6.670;2023-04-15T07:55:09;101403.44;;;10.91;100.00
55916;BME280;41826;53.246;-6.670;2023-04-15T07:57:35;101443.31;;;11.17;100.00
55916;BME280;41826;53.246;-6.670;2023-04-15T08:00:02;101453.88;;;11.26;100.00
55916;BME280;41826;53.246;-6.670;2023-04-15T08:02:30;101448.59;;;11.47;100.00
55916;BME280;41826;53.246;-6.670;2023-04-15T08:04:55;101443.72;;;11.74;100.00
55916;BME280;41826;53.246;-6.670;2023-04-15T08:07:22;101458.06;;;11.60;100.00
55916;BME280;41826;53.246;-6.670;2023-04-15T08:09:47;101464.44;;;11.67;100.00
55916;BME280;41826;53.246;-6.670;2023-04-15T08:12:13;101451.53;;;11.54;100.00
55916;BME280;41826;53.246;-6.670;2023-04-15T08:14:39;101452.44;;;11.74;100.00
55916;BME280;41826;53.246;-6.670;2023-04-15T08:17:04;101451.66;;;11.83;100.00
55916;BME280;41826;53.246;-6.670;2023-04-15T08:19:30;101458.69;;;12.04;100.00
55916;BME280;41826;53.246;-6.670;2023-04-15T08:21:56;101461.72;;;11.99;100.00
55916;BME280;41826;53.246;-6.670;2023-04-15T08:24:22;101460.09;;;12.18;100.00
55916;BME280;41826;53.246;-6.670;2023-04-15T08:26:48;101460.47;;;11.73;100.00
55916;BME280;41826;53.246;-6.670;2023-04-15T08:29:13;101458.38;;;11.66;100.00
55916;BME280;41826;53.246;-6.670;2023-04-15T08:31:39;101467.47;;;12.33;100.00
55916;BME280;41826;53.246;-6.670;2023-04-15T08:34:04;101473.81;;;11.81;100.00
55916;BME280;41826;53.246;-6.670;2023-04-15T08:36:30;101477.09;;;12.04;100.00
55916;BME280;41826;53.246;-6.670;2023-04-15T08:38:56;101476.44;;;11.50;100.00
55916;BME280;41826;53.246;-6.670;2023-04-15T08:41:23;101487.75;;;11.92;100.00
55916;BME280;41826;53.246;-6.670;2023-04-15T08:43:57;101492.28;;;11.69;100.00
55916;BME280;41826;53.246;-6.670;2023-04-15T08:46:25;101489.06;;;12.27;100.00
55916;BME280;41826;53.246;-6.670;2023-04-15T08:48:55;101493.88;;;12.82;100.00
55916;BME280;41826;53.246;-6.670;2023-04-15T08:51:21;101496.75;;;13.08;100.00
55916;BME280;41826;53.246;-6.670;2023-04-15T08:53:46;101487.06;;;12.99;100.00
55916;BME280;41826;53.246;-6.670;2023-04-15T08:56:14;101483.09;;;12.16;100.00
55916;BME280;41826;53.246;-6.670;2023-04-15T08:58:43;101484.28;;;12.02;100.00
55916;BME280;41826;53.246;-6.670;2023-04-15T09:01:11;101485.31;;;12.20;100.00
55916;BME280;41826;53.246;-6.670;2023-04-15T09:03:37;101493.03;;;12.12;100.00
55916;BME280;41826;53.246;-6.670;2023-04-15T09:06:04;101491.75;;;12.47;100.00
55916;BME280;41826;53.246;-6.670;2023-04-15T09:08:30;101492.06;;;12.83;100.00
55916;BME280;41826;53.246;-6.670;2023-04-15T09:10:55;101492.19;;;13.00;100.00
55916;BME280;41826;53.246;-6.670;2023-04-15T09:13:21;101496.41;;;12.24;100.00
55916;BME280;41826;53.246;-6.670;2023-04-15T09:15:47;101493.25;;;12.40;100.00
55916;BME280;41826;53.246;-6.670;2023-04-15T09:18:26;101499.06;;;12.24;100.00
55916;BME280;41826;53.246;-6.670;2023-04-15T09:20:52;101501.63;;;12.93;100.00
55916;BME280;41826;53.246;-6.670;2023-04-15T09:23:18;101492.84;;;12.44;100.00
55916;BME280;41826;53.246;-6.670;2023-04-15T09:25:47;101498.47;;;12.10;100.00
55916;BME280;41826;53.246;-6.670;2023-04-15T09:28:13;101504.78;;;12.58;100.00
55916;BME280;41826;53.246;-6.670;2023-04-15T09:30:42;101507.56;;;12.76;100.00
55916;BME280;41826;53.246;-6.670;2023-04-15T09:33:13;101507.00;;;13.50;100.00
55916;BME280;41826;53.246;-6.670;2023-04-15T09:35:38;101483.75;;;12.87;100.00
55916;BME280;41826;53.246;-6.670;2023-04-15T09:38:08;101497.59;;;13.28;100.00
55916;BME280;41826;53.246;-6.670;2023-04-15T09:43:02;101483.16;;;13.13;100.00
55916;BME280;41826;53.246;-6.670;2023-04-15T09:45:28;101474.41;;;13.22;100.00
55916;BME280;41826;53.246;-6.670;2023-04-15T09:47:57;101455.41;;;13.28;100.00
55916;BME280;41826;53.246;-6.670;2023-04-15T09:50:28;101458.53;;;13.51;100.00
55916;BME280;41826;53.246;-6.670;2023-04-15T09:52:56;101453.16;;;13.23;100.00
55916;BME280;41826;53.246;-6.670;2023-04-15T09:55:32;101456.50;;;13.26;100.00
55916;BME280;41826;53.246;-6.670;2023-04-15T09:57:58;101472.91;;;12.80;100.00
55916;BME280;41826;53.246;-6.670;2023-04-15T10:00:26;101474.53;;;13.20;100.00
55916;BME280;41826;53.246;-6.670;2023-04-15T10:02:53;101486.75;;;13.31;100.00
55916;BME280;41826;53.246;-6.670;2023-04-15T10:05:32;101474.56;;;13.30;100.00
55916;BME280;41826;53.246;-6.670;2023-04-15T10:08:01;101473.19;;;12.97;100.00
55916;BME280;41826;53.246;-6.670;2023-04-15T10:10:28;101494.78;;;13.86;100.00
55916;BME280;41826;53.246;-6.670;2023-04-15T10:12:54;101480.75;;;13.49;100.00
55916;BME280;41826;53.246;-6.670;2023-04-15T10:15:20;101489.09;;;13.91;100.00
55916;BME280;41826;53.246;-6.670;2023-04-15T10:17:47;101474.16;;;13.72;100.00
55916;BME280;41826;53.246;-6.670;2023-04-15T10:20:18;101466.09;;;13.17;100.00
55916;BME280;41826;53.246;-6.670;2023-04-15T10:22:44;101475.38;;;13.40;100.00
55916;BME280;41826;53.246;-6.670;2023-04-15T10:25:09;101452.94;;;12.78;100.00
55916;BME280;41826;53.246;-6.670;2023-04-15T10:27:36;101471.38;;;13.17;100.00
55916;BME280;41826;53.246;-6.670;2023-04-15T10:30:04;101472.22;;;13.64;100.00
55916;BME280;41826;53.246;-6.670;2023-04-15T10:32:30;101488.25;;;14.46;100.00
55916;BME280;41826;53.246;-6.670;2023-04-15T10:34:56;101472.22;;;14.47;100.00
55916;BME280;41826;53.246;-6.670;2023-04-15T10:37:37;101419.47;;;13.92;100.00
55916;BME280;41826;53.246;-6.670;2023-04-15T10:40:46;101378.97;;;13.56;100.00
55916;BME280;41826;53.246;-6.670;2023-04-15T10:43:24;101384.16;;;13.48;100.00
55916;BME280;41826;53.246;-6.670;2023-04-15T10:45:52;101401.47;;;13.60;100.00
55916;BME280;41826;53.246;-6.670;2023-04-15T10:48:20;101401.97;;;13.91;100.00
55916;BME280;41826;53.246;-6.670;2023-04-15T10:50:57;101396.09;;;13.70;100.00
55916;BME280;41826;53.246;-6.670;2023-04-15T10:53:28;101406.34;;;13.55;100.00
55916;BME280;41826;53.246;-6.670;2023-04-15T10:55:58;101408.34;;;13.98;100.00
55916;BME280;41826;53.246;-6.670;2023-04-15T10:58:40;101387.03;;;13.82;100.00
55916;BME280;41826;53.246;-6.670;2023-04-15T11:01:06;101393.34;;;14.35;100.00
55916;BME280;41826;53.246;-6.670;2023-04-15T11:03:39;101399.75;;;13.69;100.00
55916;BME280;41826;53.246;-6.670;2023-04-15T11:06:07;101392.97;;;13.56;100.00
55916;BME280;41826;53.246;-6.670;2023-04-15T11:08:56;101378.78;;;13.39;100.00
55916;BME280;41826;53.246;-6.670;2023-04-15T11:14:26;101350.50;;;13.77;100.00
55916;BME280;41826;53.246;-6.670;2023-04-15T11:16:54;101359.31;;;13.96;100.00
55916;BME280;41826;53.246;-6.670;2023-04-15T11:19:20;101364.78;;;13.57;100.00
55916;BME280;41826;53.246;-6.670;2023-04-15T11:21:46;101389.22;;;13.59;100.00
55916;BME280;41826;53.246;-6.670;2023-04-15T11:24:22;101391.38;;;14.37;100.00
55916;BME280;41826;53.246;-6.670;2023-04-15T11:26:56;101373.88;;;13.72;100.00
55916;BME280;41826;53.246;-6.670;2023-04-15T11:29:22;101373.69;;;13.83;100.00
55916;BME280;41826;53.246;-6.670;2023-04-15T11:31:47;101375.44;;;13.93;100.00
55916;BME280;41826;53.246;-6.670;2023-04-15T11:34:21;101367.19;;;13.78;100.00
55916;BME280;41826;53.246;-6.670;2023-04-15T11:36:47;101374.44;;;13.76;100.00
55916;BME280;41826;53.246;-6.670;2023-04-15T11:39:13;101374.94;;;13.79;100.00
55916;BME280;41826;53.246;-6.670;2023-04-15T11:41:40;101372.94;;;13.91;100.00
55916;BME280;41826;53.246;-6.670;2023-04-15T11:44:15;101373.78;;;13.92;100.00
55916;BME280;41826;53.246;-6.670;2023-04-15T11:46:41;101368.56;;;14.00;100.00
55916;BME280;41826;53.246;-6.670;2023-04-15T11:49:07;101354.34;;;14.11;100.00
55916;BME280;41826;53.246;-6.670;2023-04-15T11:51:33;101365.22;;;14.61;100.00
55916;BME280;41826;53.246;-6.670;2023-04-15T11:53:59;101339.44;;;14.45;100.00
55916;BME280;41826;53.246;-6.670;2023-04-15T11:56:25;101341.66;;;13.96;100.00
55916;BME280;41826;53.246;-6.670;2023-04-15T11:58:58;101333.50;;;14.25;100.00
55916;BME280;41826;53.246;-6.670;2023-04-15T12:01:31;101335.09;;;14.36;100.00
55916;BME280;41826;53.246;-6.670;2023-04-15T12:03:59;101333.66;;;14.42;100.00
55916;BME280;41826;53.246;-6.670;2023-04-15T12:06:31;101326.19;;;14.37;100.00
55916;BME280;41826;53.246;-6.670;2023-04-15T12:16:45;101313.13;;;14.18;100.00
55916;BME280;41826;53.246;-6.670;2023-04-15T12:19:15;101301.59;;;14.19;100.00
55916;BME280;41826;53.246;-6.670;2023-04-15T12:21:44;101299.19;;;13.90;100.00
55916;BME280;41826;53.246;-6.670;2023-04-15T12:24:11;101315.28;;;14.58;100.00
55916;BME280;41826;53.246;-6.670;2023-04-15T12:26:47;101283.09;;;14.37;100.00
55916;BME280;41826;53.246;-6.670;2023-04-15T12:29:15;101279.88;;;14.07;100.00
55916;BME280;41826;53.246;-6.670;2023-04-15T12:31:52;101313.50;;;14.59;100.00
55916;BME280;41826;53.246;-6.670;2023-04-15T12:34:33;101289.50;;;14.34;100.00
55916;BME280;41826;53.246;-6.670;2023-04-15T12:37:02;101276.41;;;14.50;100.00
55916;BME280;41826;53.246;-6.670;2023-04-15T12:39:30;101273.34;;;13.75;100.00
55916;BME280;41826;53.246;-6.670;2023-04-15T12:41:57;101278.34;;;14.22;100.00
55916;BME280;41826;53.246;-6.670;2023-04-15T12:44:24;101278.63;;;14.37;100.00
55916;BME280;41826;53.246;-6.670;2023-04-15T12:47:00;101259.59;;;14.51;100.00